createdAt,value
2022-09-24T00:01:28.612Z,-63
2022-09-24T00:03:56.510Z,-64
2022-09-24T00:06:23.748Z,-65
2022-09-24T00:08:51.572Z,-67
2022-09-24T00:11:19.856Z,-64
2022-09-24T00:13:46.732Z,-65
2022-09-24T00:16:13.945Z,-65
2022-09-24T00:18:40.833Z,-66
2022-09-24T00:21:13.310Z,-66
2022-09-24T00:23:39.995Z,-65
2022-09-24T00:26:25.413Z,-63
2022-09-24T00:28:52.186Z,-67
2022-09-24T00:31:18.749Z,-65
2022-09-24T00:33:45.255Z,-64
2022-09-24T00:36:11.886Z,-66
2022-09-24T00:38:38.259Z,-67
2022-09-24T00:41:04.697Z,-64
2022-09-24T00:43:34.525Z,-64
2022-09-24T00:46:13.074Z,-64
2022-09-24T00:48:41.372Z,-65
2022-09-24T00:51:08.386Z,-64
2022-09-24T00:53:35.020Z,-68
2022-09-24T00:56:03.192Z,-64
2022-09-24T00:58:31.567Z,-66
2022-09-24T01:01:01.858Z,-64
2022-09-24T01:03:28.912Z,-64
2022-09-24T01:05:56.468Z,-64
2022-09-24T01:08:23.580Z,-64
2022-09-24T01:10:53.085Z,-67
2022-09-24T01:13:26.573Z,-68
2022-09-24T01:16:16.364Z,-64
2022-09-24T01:18:42.897Z,-64
2022-09-24T01:21:29.612Z,-62
2022-09-24T01:24:21.146Z,-62
2022-09-24T01:27:02.876Z,-66
2022-09-24T01:29:42.382Z,-63
2022-09-24T01:32:12.387Z,-66
2022-09-24T01:34:48.392Z,-64
2022-09-24T01:37:16.063Z,-66
2022-09-24T01:39:43.862Z,-64
2022-09-24T01:42:11.188Z,-62
2022-09-24T01:44:38.883Z,-65
2022-09-24T01:47:06.626Z,-64
2022-09-24T01:49:33.477Z,-61
2022-09-24T01:52:03.344Z,-66
2022-09-24T01:54:33.153Z,-66
2022-09-24T01:57:01.123Z,-63
2022-09-24T01:59:34.981Z,-63
2022-09-24T02:02:05.519Z,-66
2022-09-24T02:04:35.857Z,-63
2022-09-24T02:07:04.694Z,-62
2022-09-24T02:09:36.312Z,-64
2022-09-24T02:12:22.975Z,-65
2022-09-24T02:14:52.294Z,-65
2022-09-24T02:17:18.905Z,-62
2022-09-24T02:19:49.941Z,-63
2022-09-24T02:22:17.487Z,-62
2022-09-24T02:24:46.681Z,-65
2022-09-24T02:27:13.292Z,-63
2022-09-24T02:29:39.841Z,-66
2022-09-24T02:32:08.291Z,-66
2022-09-24T02:34:38.567Z,-65
2022-09-24T02:37:09.315Z,-63
2022-09-24T02:39:36.525Z,-63
2022-09-24T02:42:05.657Z,-65
2022-09-24T02:44:32.904Z,-62
2022-09-24T02:46:59.791Z,-62
2022-09-24T02:49:26.326Z,-63
2022-09-24T02:51:52.756Z,-65
2022-09-24T02:54:19.220Z,-64
2022-09-24T02:56:45.665Z,-65
2022-09-24T02:59:12.352Z,-63
2022-09-24T03:01:39.348Z,-61
2022-09-24T03:04:06.750Z,-61
2022-09-24T03:06:33.276Z,-60
2022-09-24T03:09:00.984Z,-60
2022-09-24T03:11:27.678Z,-61
2022-09-24T03:13:54.073Z,-60
2022-09-24T03:16:20.594Z,-60
2022-09-24T03:18:47.767Z,-58
2022-09-24T03:21:15.711Z,-62
2022-09-24T03:23:42.342Z,-59
2022-09-24T03:26:09.282Z,-64
2022-09-24T03:28:35.715Z,-60
2022-09-24T03:31:02.323Z,-59
2022-09-24T03:33:36.608Z,-61
2022-09-24T03:36:10.624Z,-60
2022-09-24T03:38:38.449Z,-61
2022-09-24T03:41:05.385Z,-60
2022-09-24T03:43:32.638Z,-62
2022-09-24T03:45:59.192Z,-62
2022-09-24T03:48:26.373Z,-60
2022-09-24T03:50:53.713Z,-62
2022-09-24T03:53:20.501Z,-59
2022-09-24T03:55:48.353Z,-60
2022-09-24T03:58:15.678Z,-62
2022-09-24T04:00:42.469Z,-61
2022-09-24T04:03:09.632Z,-59
2022-09-24T04:05:36.300Z,-60
2022-09-24T04:08:03.003Z,-60
2022-09-24T04:10:29.958Z,-62
2022-09-24T04:12:56.502Z,-59
2022-09-24T04:15:23.510Z,-60
2022-09-24T04:17:53.823Z,-60
2022-09-24T04:20:24.310Z,-59
2022-09-24T04:22:51.015Z,-58
2022-09-24T04:25:17.660Z,-60
2022-09-24T04:27:47.417Z,-58
2022-09-24T04:30:14.531Z,-59
2022-09-24T04:32:41.620Z,-58
2022-09-24T04:35:08.768Z,-62
2022-09-24T04:37:35.493Z,-59
2022-09-24T04:40:02.957Z,-60
2022-09-24T04:42:29.380Z,-59
2022-09-24T04:44:56.341Z,-60
2022-09-24T04:47:25.948Z,-59
2022-09-24T04:49:52.397Z,-57
2022-09-24T04:52:18.809Z,-62
2022-09-24T04:54:47.363Z,-59
2022-09-24T04:57:14.787Z,-58
2022-09-24T04:59:41.527Z,-59
2022-09-24T05:02:09.825Z,-58
2022-09-24T05:04:36.680Z,-61
2022-09-24T05:07:03.780Z,-58
2022-09-24T05:09:33.341Z,-60
2022-09-24T05:11:59.807Z,-62
2022-09-24T05:14:26.495Z,-59
2022-09-24T05:16:53.202Z,-58
2022-09-24T05:19:19.643Z,-62
2022-09-24T05:21:46.423Z,-59
2022-09-24T05:24:13.212Z,-59
2022-09-24T05:26:58.250Z,-62
2022-09-24T05:29:24.814Z,-61
2022-09-24T05:31:51.238Z,-59
2022-09-24T05:34:17.684Z,-60
2022-09-24T05:36:44.092Z,-60
2022-09-24T05:39:11.790Z,-59
2022-09-24T05:41:38.942Z,-59
2022-09-24T05:44:05.738Z,-61
2022-09-24T05:46:33.157Z,-59
2022-09-24T05:48:59.736Z,-60
2022-09-24T05:51:26.128Z,-58
2022-09-24T05:53:52.565Z,-58
2022-09-24T05:56:21.245Z,-58
2022-09-24T05:58:50.718Z,-59
2022-09-24T06:01:17.156Z,-58
2022-09-24T06:03:43.551Z,-60
2022-09-24T06:06:10.024Z,-58
2022-09-24T06:08:36.452Z,-59
2022-09-24T06:11:05.333Z,-59
2022-09-24T06:13:33.720Z,-58
2022-09-24T06:16:04.974Z,-57
2022-09-24T06:18:33.471Z,-57
2022-09-24T06:21:03.971Z,-58
2022-09-24T06:23:31.058Z,-58
2022-09-24T06:25:57.972Z,-61
2022-09-24T06:28:27.329Z,-60
2022-09-24T06:30:53.987Z,-60
2022-09-24T06:33:20.692Z,-60
2022-09-24T06:35:47.977Z,-57
2022-09-24T06:38:15.418Z,-59
2022-09-24T06:40:42.438Z,-57
2022-09-24T06:43:10.913Z,-59
2022-09-24T06:45:37.699Z,-59
2022-09-24T06:48:05.082Z,-62
2022-09-24T06:50:32.544Z,-60
2022-09-24T06:52:58.966Z,-61
2022-09-24T06:55:25.479Z,-57
2022-09-24T06:58:01.170Z,-58
2022-09-24T07:00:27.758Z,-62
2022-09-24T07:02:54.596Z,-58
2022-09-24T07:05:20.985Z,-61
2022-09-24T07:07:47.400Z,-60
2022-09-24T07:10:14.081Z,-61
2022-09-24T07:12:41.351Z,-59
2022-09-24T07:15:08.670Z,-60
2022-09-24T07:17:35.234Z,-58
2022-09-24T07:20:04.457Z,-61
2022-09-24T07:22:32.235Z,-59
2022-09-24T07:24:58.650Z,-60
2022-09-24T07:27:25.480Z,-59
2022-09-24T07:29:51.921Z,-59
2022-09-24T07:32:18.542Z,-59
2022-09-24T07:34:45.270Z,-62
2022-09-24T07:37:11.837Z,-62
2022-09-24T07:39:38.287Z,-58
2022-09-24T07:42:05.527Z,-60
2022-09-24T07:44:31.957Z,-58
2022-09-24T07:46:58.505Z,-60
2022-09-24T07:49:25.533Z,-63
2022-09-24T07:51:51.913Z,-58
2022-09-24T07:54:18.423Z,-55
2022-09-24T07:56:44.993Z,-56
2022-09-24T07:59:11.540Z,-57
2022-09-24T08:01:37.990Z,-58
2022-09-24T08:04:05.063Z,-59
2022-09-24T08:06:38.302Z,-62
2022-09-24T08:09:06.997Z,-59
2022-09-24T08:11:33.600Z,-60
2022-09-24T08:14:00.661Z,-60
2022-09-24T08:16:27.233Z,-59
2022-09-24T08:18:53.972Z,-59
2022-09-24T08:21:20.720Z,-61
2022-09-24T08:23:47.176Z,-57
2022-09-24T08:26:13.845Z,-61
2022-09-24T08:28:42.168Z,-57
2022-09-24T08:31:11.284Z,-62
2022-09-24T08:33:38.358Z,-59
2022-09-24T08:36:07.146Z,-63
2022-09-24T08:38:33.806Z,-60
2022-09-24T08:41:03.319Z,-60
2022-09-24T08:43:42.273Z,-60
2022-09-24T08:46:33.479Z,-62
2022-09-24T08:49:00.071Z,-62
2022-09-24T08:51:30.220Z,-58
2022-09-24T08:54:07.810Z,-65
2022-09-24T08:56:36.146Z,-56
2022-09-24T08:59:05.357Z,-60
2022-09-24T09:04:22.574Z,-61
2022-09-24T09:06:56.272Z,-61
2022-09-24T09:09:24.054Z,-58
2022-09-24T09:11:52.055Z,-64
2022-09-24T09:14:19.059Z,-54
2022-09-24T09:16:45.984Z,-61
2022-09-24T09:19:15.719Z,-59
2022-09-24T09:21:43.267Z,-64
2022-09-24T09:24:21.079Z,-61
2022-09-24T09:26:49.362Z,-55
2022-09-24T09:29:16.236Z,-58
2022-09-24T09:31:57.427Z,-59
2022-09-24T09:34:30.489Z,-58
2022-09-24T09:37:15.633Z,-58
2022-09-24T09:39:49.873Z,-60
2022-09-24T09:42:28.354Z,-60
2022-09-24T09:44:54.946Z,-60
2022-09-24T09:47:21.313Z,-58
2022-09-24T09:49:48.811Z,-65
2022-09-24T09:52:16.373Z,-59
2022-09-24T09:54:43.589Z,-58
2022-09-24T09:57:20.645Z,-61
2022-09-24T09:59:51.224Z,-60
2022-09-24T10:02:24.031Z,-60
2022-09-24T10:04:55.937Z,-61
2022-09-24T10:07:22.846Z,-60
2022-09-24T10:09:58.589Z,-60
2022-09-24T10:12:26.709Z,-60
2022-09-24T10:14:57.583Z,-60
2022-09-24T10:17:27.498Z,-60
2022-09-24T10:19:55.669Z,-60
2022-09-24T10:22:23.832Z,-60
2022-09-24T10:24:50.562Z,-59
2022-09-24T10:27:31.258Z,-60
2022-09-24T10:30:16.490Z,-62
2022-09-24T10:32:43.123Z,-61
2022-09-24T10:35:42.474Z,-63
2022-09-24T10:38:20.157Z,-60
2022-09-24T10:40:47.051Z,-61
2022-09-24T10:43:18.419Z,-60
2022-09-24T10:45:44.847Z,-63
2022-09-24T10:48:19.171Z,-60
2022-09-24T10:50:57.587Z,-61
2022-09-24T10:53:39.579Z,-61
2022-09-24T10:56:24.989Z,-60
2022-09-24T10:58:53.258Z,-60
2022-09-24T11:01:19.725Z,-60
2022-09-24T11:03:53.946Z,-60
2022-09-24T11:06:32.614Z,-60
2022-09-24T11:09:07.161Z,-60
2022-09-24T11:11:33.647Z,-61
2022-09-24T11:14:15.853Z,-62
2022-09-24T11:17:03.302Z,-59
2022-09-24T11:19:31.196Z,-60
2022-09-24T11:22:10.115Z,-59
2022-09-24T11:24:44.202Z,-60
2022-09-24T11:27:22.552Z,-60
2022-09-24T11:29:49.044Z,-60
2022-09-24T11:32:25.119Z,-60
2022-09-24T11:34:59.396Z,-61
2022-09-24T11:37:46.178Z,-62
2022-09-24T11:40:13.297Z,-60
2022-09-24T11:42:57.913Z,-58
2022-09-24T11:45:42.162Z,-59
2022-09-24T11:48:33.678Z,-60
2022-09-24T11:51:06.852Z,-60
2022-09-24T11:53:42.138Z,-60
2022-09-24T11:56:15.248Z,-61
2022-09-24T11:58:52.588Z,-60
2022-09-24T12:01:33.901Z,-61
2022-09-24T12:04:03.208Z,-60
2022-09-24T12:06:36.666Z,-60
2022-09-24T12:09:09.848Z,-60
2022-09-24T12:11:39.313Z,-59
2022-09-24T12:14:17.529Z,-60
2022-09-24T12:16:45.930Z,-61
2022-09-24T12:19:15.252Z,-60
2022-09-24T12:21:44.231Z,-60
2022-09-24T12:24:26.080Z,-62
2022-09-24T12:26:54.309Z,-60
2022-09-24T12:29:39.307Z,-60
2022-09-24T12:32:24.353Z,-60
2022-09-24T12:35:00.509Z,-60
2022-09-24T12:37:30.600Z,-62
2022-09-24T12:40:01.593Z,-61
2022-09-24T12:42:32.182Z,-60
2022-09-24T12:44:59.514Z,-61
2022-09-24T12:47:31.849Z,-61
2022-09-24T12:50:00.380Z,-61
2022-09-24T12:52:35.588Z,-61
2022-09-24T12:55:03.940Z,-60
2022-09-24T12:57:34.378Z,-60
2022-09-24T13:00:02.059Z,-60
2022-09-24T13:02:43.609Z,-60
2022-09-24T13:05:29.480Z,-60
2022-09-24T13:07:59.024Z,-60
2022-09-24T13:10:27.677Z,-60
2022-09-24T13:12:54.413Z,-59
2022-09-24T13:15:30.028Z,-59
2022-09-24T13:18:19.809Z,-57
2022-09-24T13:20:56.770Z,-59
2022-09-24T13:23:23.205Z,-57
2022-09-24T13:26:03.147Z,-59
2022-09-24T13:28:38.230Z,-59
2022-09-24T13:31:19.166Z,-59
2022-09-24T13:33:48.346Z,-60
2022-09-24T13:36:17.526Z,-60
2022-09-24T13:38:48.383Z,-61
2022-09-24T13:41:26.876Z,-60
2022-09-24T13:44:06.260Z,-60
2022-09-24T13:46:35.082Z,-60
2022-09-24T13:49:03.656Z,-60
2022-09-24T13:51:31.347Z,-60
2022-09-24T13:54:04.140Z,-60
2022-09-24T13:56:30.860Z,-60
2022-09-24T13:59:06.360Z,-60
2022-09-24T14:01:36.648Z,-59
2022-09-24T14:04:05.355Z,-58
2022-09-24T14:06:37.055Z,-59
2022-09-24T14:09:14.262Z,-60
2022-09-24T14:11:48.223Z,-60
2022-09-24T14:14:17.275Z,-60
2022-09-24T14:16:43.834Z,-64
2022-09-24T14:19:14.420Z,-64
2022-09-24T14:21:51.466Z,-64
2022-09-24T14:24:26.230Z,-64
2022-09-24T14:27:00.060Z,-64
2022-09-24T14:29:28.134Z,-64
2022-09-24T14:31:56.995Z,-64
2022-09-24T14:34:40.049Z,-63
2022-09-24T14:37:20.202Z,-64
2022-09-24T14:39:48.165Z,-63
2022-09-24T14:42:22.285Z,-64
2022-09-24T14:44:48.859Z,-59
2022-09-24T14:47:26.045Z,-59
2022-09-24T14:49:52.556Z,-58
2022-09-24T14:52:31.038Z,-59
2022-09-24T14:55:02.115Z,-61
2022-09-24T14:57:35.658Z,-60
2022-09-24T15:00:02.169Z,-60
2022-09-24T15:02:28.593Z,-83
2022-09-24T15:04:56.406Z,-83
2022-09-24T15:07:24.791Z,-83
2022-09-24T15:09:52.291Z,-82
2022-09-24T15:12:20.566Z,-83
2022-09-24T15:14:57.420Z,-83
2022-09-24T15:17:26.978Z,-84
2022-09-24T15:19:56.289Z,-83
2022-09-24T15:22:22.704Z,-84
2022-09-24T15:24:49.480Z,-84
2022-09-24T15:27:19.117Z,-85
2022-09-24T15:29:45.505Z,-84
2022-09-24T15:32:16.287Z,-81
2022-09-24T15:34:42.878Z,-81
2022-09-24T15:37:10.719Z,-81
2022-09-24T15:39:38.077Z,-80
2022-09-24T15:42:04.598Z,-81
2022-09-24T15:44:34.025Z,-82
2022-09-24T15:47:00.769Z,-81
2022-09-24T15:49:27.426Z,-84
2022-09-24T15:51:53.774Z,-83
2022-09-24T15:54:21.682Z,-84
2022-09-24T15:56:52.448Z,-83
2022-09-24T15:59:20.120Z,-85
2022-09-24T16:01:48.067Z,-84
2022-09-24T16:04:14.477Z,-84
2022-09-24T16:06:40.953Z,-84
2022-09-24T16:09:07.488Z,-84
2022-09-24T16:11:34.031Z,-83
2022-09-24T16:14:00.426Z,-82
2022-09-24T16:16:26.905Z,-83
2022-09-24T16:18:53.581Z,-84
2022-09-24T16:21:20.481Z,-83
2022-09-24T16:23:46.968Z,-84
2022-09-24T16:26:13.368Z,-83
2022-09-24T16:28:40.027Z,-82
2022-09-24T16:31:10.072Z,-82
2022-09-24T16:33:39.794Z,-82
2022-09-24T16:36:06.672Z,-83
2022-09-24T16:38:37.125Z,-83
2022-09-24T16:41:03.846Z,-83
2022-09-24T16:43:30.612Z,-82
2022-09-24T16:46:04.428Z,-83
2022-09-24T16:48:31.352Z,-83
2022-09-24T16:51:04.836Z,-83
2022-09-24T16:53:31.397Z,-83
2022-09-24T16:56:10.996Z,-84
2022-09-24T16:58:37.414Z,-83
2022-09-24T17:01:05.011Z,-83
2022-09-24T17:03:31.466Z,-83
2022-09-24T17:05:57.976Z,-82
2022-09-24T17:08:44.374Z,-83
2022-09-24T17:11:10.910Z,-83
2022-09-24T17:13:37.289Z,-83
2022-09-24T17:16:03.819Z,-83
2022-09-24T17:18:30.220Z,-84
2022-09-24T17:21:00.791Z,-83
2022-09-24T17:23:27.178Z,-82
2022-09-24T17:26:02.625Z,-83
2022-09-24T17:28:31.759Z,-83
2022-09-24T17:30:58.200Z,-82
2022-09-24T17:33:43.037Z,-83
2022-09-24T17:36:11.230Z,-83
2022-09-24T17:38:37.598Z,-84
2022-09-24T17:41:05.400Z,-83
2022-09-24T17:43:32.360Z,-82
2022-09-24T17:46:02.151Z,-83
2022-09-24T17:48:30.470Z,-82
2022-09-24T17:50:57.587Z,-83
2022-09-24T17:53:25.103Z,-83
2022-09-24T17:55:52.078Z,-83
2022-09-24T17:58:19.242Z,-82
2022-09-24T18:00:46.204Z,-83
2022-09-24T18:03:13.070Z,-83
2022-09-24T18:05:39.810Z,-83
2022-09-24T18:08:06.326Z,-82
2022-09-24T18:10:32.779Z,-82
2022-09-24T18:12:59.415Z,-82
2022-09-24T18:15:26.436Z,-82
2022-09-24T18:17:53.602Z,-83
2022-09-24T18:20:20.243Z,-83
2022-09-24T18:22:46.744Z,-83
2022-09-24T18:25:13.760Z,-82
2022-09-24T18:27:40.920Z,-81
2022-09-24T18:30:09.769Z,-83
2022-09-24T18:32:37.065Z,-82
2022-09-24T18:35:03.532Z,-83
2022-09-24T18:37:29.909Z,-83
2022-09-24T18:39:56.296Z,-83
2022-09-24T18:42:22.686Z,-82
2022-09-24T18:44:50.773Z,-83
2022-09-24T18:47:19.525Z,-83
2022-09-24T18:49:45.862Z,-83
2022-09-24T18:52:13.301Z,-82
2022-09-24T18:54:39.716Z,-83
2022-09-24T18:57:06.262Z,-82
2022-09-24T18:59:44.264Z,-82
2022-09-24T19:02:14.530Z,-82
2022-09-24T19:04:41.351Z,-83
2022-09-24T19:07:08.488Z,-82
2022-09-24T19:09:35.325Z,-82
2022-09-24T19:12:02.769Z,-82
2022-09-24T19:14:29.177Z,-82
2022-09-24T19:16:57.026Z,-82
2022-09-24T19:19:26.797Z,-82
2022-09-24T19:21:53.343Z,-82
2022-09-24T19:24:19.934Z,-82
2022-09-24T19:26:46.287Z,-82
2022-09-24T19:29:12.766Z,-82
2022-09-24T19:31:40.919Z,-82
2022-09-24T19:34:08.966Z,-83
2022-09-24T19:36:43.762Z,-82
2022-09-24T19:39:15.707Z,-82
2022-09-24T19:41:42.807Z,-84
2022-09-24T19:44:09.774Z,-82
2022-09-24T19:46:37.260Z,-83
2022-09-24T19:49:03.871Z,-83
2022-09-24T19:51:31.326Z,-82
2022-09-24T19:53:59.055Z,-82
2022-09-24T19:56:25.891Z,-82
2022-09-24T19:58:56.523Z,-81
2022-09-24T20:01:30.725Z,-81
2022-09-24T20:03:57.868Z,-82
2022-09-24T20:06:26.352Z,-83
2022-09-24T20:08:53.713Z,-84
2022-09-24T20:11:21.166Z,-84
2022-09-24T20:13:48.380Z,-81
2022-09-24T20:16:16.232Z,-83
2022-09-24T20:18:43.371Z,-83
2022-09-24T20:21:12.694Z,-83
2022-09-24T20:23:39.895Z,-83
2022-09-24T20:26:24.801Z,-83
2022-09-24T20:28:51.714Z,-83
2022-09-24T20:31:20.937Z,-80
2022-09-24T20:33:48.052Z,-82
2022-09-24T20:36:17.979Z,-83
2022-09-24T20:38:47.342Z,-83
2022-09-24T20:41:15.144Z,-82
2022-09-24T20:43:41.552Z,-84
2022-09-24T20:46:10.144Z,-82
2022-09-24T20:48:37.308Z,-83
2022-09-24T20:51:10.219Z,-84
2022-09-24T20:53:36.866Z,-83
2022-09-24T20:56:05.963Z,-83
2022-09-24T20:58:32.989Z,-84
2022-09-24T21:01:00.135Z,-83
2022-09-24T21:03:43.350Z,-83
2022-09-24T21:06:11.822Z,-84
2022-09-24T21:08:40.108Z,-84
2022-09-24T21:11:07.795Z,-84
2022-09-24T21:13:35.608Z,-84
2022-09-24T21:16:05.457Z,-84
2022-09-24T21:18:40.096Z,-58
2022-09-24T21:21:08.447Z,-58
2022-09-24T21:23:36.245Z,-59
2022-09-24T21:26:09.649Z,-60
2022-09-24T21:28:36.393Z,-59
2022-09-24T21:31:05.565Z,-56
2022-09-24T21:33:32.774Z,-57
2022-09-24T21:36:00.295Z,-57
2022-09-24T21:38:26.769Z,-58
2022-09-24T21:40:56.908Z,-58
2022-09-24T21:43:26.841Z,-57
2022-09-24T21:46:02.104Z,-58
2022-09-24T21:48:28.578Z,-57
2022-09-24T21:51:01.384Z,-57
2022-09-24T21:53:27.910Z,-57
2022-09-24T21:55:54.282Z,-57
2022-09-24T21:58:20.665Z,-57
2022-09-24T22:00:47.104Z,-60
2022-09-24T22:03:14.361Z,-58
2022-09-24T22:05:43.048Z,-58
2022-09-24T22:08:11.868Z,-57
2022-09-24T22:10:42.091Z,-57
2022-09-24T22:13:09.124Z,-58
2022-09-24T22:15:36.014Z,-58
2022-09-24T22:18:02.669Z,-57
2022-09-24T22:20:29.388Z,-57
2022-09-24T22:22:55.912Z,-57
2022-09-24T22:25:22.363Z,-58
2022-09-24T22:27:48.734Z,-58
2022-09-24T22:30:15.159Z,-57
2022-09-24T22:32:41.634Z,-58
2022-09-24T22:35:28.052Z,-60
2022-09-24T22:37:55.197Z,-57
2022-09-24T22:40:21.691Z,-57
2022-09-24T22:42:48.112Z,-58
2022-09-24T22:45:14.826Z,-58
2022-09-24T22:47:41.200Z,-58
2022-09-24T22:50:07.753Z,-58
2022-09-24T22:52:34.403Z,-58
2022-09-24T22:55:00.789Z,-60
2022-09-24T22:57:27.204Z,-59
2022-09-24T22:59:53.602Z,-58
2022-09-24T23:02:20.086Z,-58
2022-09-24T23:04:46.851Z,-58
2022-09-24T23:07:16.583Z,-57
2022-09-24T23:09:42.978Z,-58
2022-09-24T23:12:09.375Z,-58
2022-09-24T23:14:35.913Z,-58
2022-09-24T23:17:02.418Z,-58
2022-09-24T23:19:48.928Z,-57
2022-09-24T23:22:19.758Z,-57
2022-09-24T23:24:47.287Z,-57
2022-09-24T23:27:15.804Z,-58
2022-09-24T23:29:42.912Z,-58
2022-09-24T23:32:09.862Z,-59
2022-09-24T23:34:36.240Z,-58
2022-09-24T23:37:02.636Z,-58
2022-09-24T23:39:29.946Z,-58
2022-09-24T23:41:56.336Z,-57
2022-09-24T23:44:22.886Z,-58
2022-09-24T23:46:49.326Z,-58
2022-09-24T23:49:15.950Z,-59
2022-09-24T23:51:42.349Z,-58
2022-09-24T23:54:08.946Z,-58
2022-09-24T23:56:35.362Z,-58
2022-09-24T23:59:01.725Z,-59
